Skip Navigation Links Skip Navigation Links

Current Weather

Morris Muni - James R. Washburn Field, Morris, Ill.

For information only: do not use for flight planning or navigation.
Latest weather
Observation time Friday, February 28, 2020 6:15 AM CST
Local time Friday, February 28, 2020 6:49 AM CST
Flight conditions Visual Meteorological Conditions
Winds
Wind direction Northwest (320°)
Wind speed 3 mph
Visibility 10 mi.
Sky condition
Ceiling 6,500 ft. broken clouds
Cloud layer scattered clouds 5,500 ft.
Cloud layer broken clouds 6,500 ft.
Temperature 21°F
Dewpoint 13°F
Altimeter 30.04 in.Hg
Derived measurements
Relative humidity 70%
Wind chill 16°F
Density altitude -2122 ft.
Remarks
Fully automated report.
Automated weather observing station with precipitation discriminator.
METAR KC09 281215Z AUTO 32003KT 10SM SCT055 BKN065 M06/M11 A3004 RMK AO2 T10611106

Settings

Location code

InnerDrive.Weather 4.0.6770.0 Release CLR 4.0.30319.42000
Copyright ©2018 Inner Drive Technology. All rights reserved. Portions Copyright ©1986-2018 David Braverman.

Find weather

Site navigation


Skip Navigation Links

Place info

Page info

PayPal - The safer, easier way to pay online!

Return home.

Copyright ©2020 Inner Drive Technology. Purveyors of fine, hand-crafted computer software. Page printed 2020-02-28T12:49:40 UTC.